sensor_id;sensor_type;location;lat;lon;timestamp;P1;durP1;ratioP1;P2;durP2;ratioP2
7823;SDS011;3957;48.61947800;9.05303100;2023-01-01T00:00:43;4.77;;;3.50;;
7823;SDS011;3957;48.61947800;9.05303100;2023-01-01T00:01:43;5.68;;;3.28;;
7823;SDS011;3957;48.61947800;9.05303100;2023-01-01T00:02:44;4.82;;;3.58;;
7823;SDS011;3957;48.61947800;9.05303100;2023-01-01T00:03:48;4.13;;;3.20;;
7823;SDS011;3957;48.61947800;9.05303100;2023-01-01T00:04:49;4.88;;;3.63;;
7823;SDS011;3957;48.61947800;9.05303100;2023-01-01T00:05:50;5.73;;;4.00;;
7823;SDS011;3957;48.61947800;9.05303100;2023-01-01T00:06:50;4.63;;;3.67;;
7823;SDS011;3957;48.61947800;9.05303100;2023-01-01T00:07:50;6.20;;;4.07;;
7823;SDS011;3957;48.61947800;9.05303100;2023-01-01T00:08:51;6.50;;;3.92;;
7823;SDS011;3957;48.61947800;9.05303100;2023-01-01T00:10:10;6.03;;;3.80;;
7823;SDS011;3957;48.61947800;9.05303100;2023-01-01T00:11:28;4.65;;;3.70;;
7823;SDS011;3957;48.61947800;9.05303100;2023-01-01T00:12:30;6.53;;;4.40;;
7823;SDS011;3957;48.61947800;9.05303100;2023-01-01T00:13:31;4.68;;;3.75;;
7823;SDS011;3957;48.61947800;9.05303100;2023-01-01T00:14:32;5.95;;;4.43;;
7823;SDS011;3957;48.61947800;9.05303100;2023-01-01T00:15:33;7.00;;;4.30;;
7823;SDS011;3957;48.61947800;9.05303100;2023-01-01T00:16:33;7.27;;;4.40;;
7823;SDS011;3957;48.61947800;9.05303100;2023-01-01T00:17:34;9.07;;;5.25;;
7823;SDS011;3957;48.61947800;9.05303100;2023-01-01T00:18:34;6.93;;;4.60;;
7823;SDS011;3957;48.61947800;9.05303100;2023-01-01T00:19:36;7.75;;;5.38;;
7823;SDS011;3957;48.61947800;9.05303100;2023-01-01T00:20:36;8.17;;;5.20;;
7823;SDS011;3957;48.61947800;9.05303100;2023-01-01T00:21:36;7.10;;;5.10;;
7823;SDS011;3957;48.61947800;9.05303100;2023-01-01T00:22:37;6.60;;;5.23;;
7823;SDS011;3957;48.61947800;9.05303100;2023-01-01T00:23:37;6.68;;;5.22;;
7823;SDS011;3957;48.61947800;9.05303100;2023-01-01T00:24:38;8.18;;;4.95;;
7823;SDS011;3957;48.61947800;9.05303100;2023-01-01T00:25:39;8.27;;;5.70;;
7823;SDS011;3957;48.61947800;9.05303100;2023-01-01T00:26:39;8.73;;;6.03;;
7823;SDS011;3957;48.61947800;9.05303100;2023-01-01T00:27:40;8.00;;;5.70;;
7823;SDS011;3957;48.61947800;9.05303100;2023-01-01T00:28:41;9.63;;;5.87;;
7823;SDS011;3957;48.61947800;9.05303100;2023-01-01T00:29:42;7.60;;;5.60;;
7823;SDS011;3957;48.61947800;9.05303100;2023-01-01T00:30:42;6.83;;;5.17;;
7823;SDS011;3957;48.61947800;9.05303100;2023-01-01T00:31:43;6.38;;;5.38;;
7823;SDS011;3957;48.61947800;9.05303100;2023-01-01T00:32:44;8.88;;;5.93;;
7823;SDS011;3957;48.61947800;9.05303100;2023-01-01T00:33:45;9.13;;;5.90;;
7823;SDS011;3957;48.61947800;9.05303100;2023-01-01T00:34:49;8.45;;;6.10;;
7823;SDS011;3957;48.61947800;9.05303100;2023-01-01T00:35:50;8.20;;;6.40;;
7823;SDS011;3957;48.61947800;9.05303100;2023-01-01T00:36:50;8.20;;;6.03;;
7823;SDS011;3957;48.61947800;9.05303100;2023-01-01T00:37:51;7.40;;;5.80;;
7823;SDS011;3957;48.61947800;9.05303100;2023-01-01T00:38:52;9.00;;;6.32;;
7823;SDS011;3957;48.61947800;9.05303100;2023-01-01T00:39:52;8.05;;;6.13;;
7823;SDS011;3957;48.61947800;9.05303100;2023-01-01T00:40:53;9.40;;;5.83;;
7823;SDS011;3957;48.61947800;9.05303100;2023-01-01T00:41:53;7.70;;;6.03;;
7823;SDS011;3957;48.61947800;9.05303100;2023-01-01T00:42:54;7.83;;;5.97;;
7823;SDS011;3957;48.61947800;9.05303100;2023-01-01T00:43:54;8.80;;;6.15;;
7823;SDS011;3957;48.61947800;9.05303100;2023-01-01T00:44:55;8.03;;;5.80;;
7823;SDS011;3957;48.61947800;9.05303100;2023-01-01T00:45:55;7.60;;;6.03;;
7823;SDS011;3957;48.61947800;9.05303100;2023-01-01T00:46:55;9.40;;;6.35;;
7823;SDS011;3957;48.61947800;9.05303100;2023-01-01T00:47:56;8.97;;;6.00;;
7823;SDS011;3957;48.61947800;9.05303100;2023-01-01T00:48:56;25.60;;;17.15;;
7823;SDS011;3957;48.61947800;9.05303100;2023-01-01T00:49:56;12.27;;;7.43;;
7823;SDS011;3957;48.61947800;9.05303100;2023-01-01T00:50:57;8.23;;;6.65;;
7823;SDS011;3957;48.61947800;9.05303100;2023-01-01T00:51:57;9.17;;;6.47;;
7823;SDS011;3957;48.61947800;9.05303100;2023-01-01T00:52:58;9.13;;;6.43;;
7823;SDS011;3957;48.61947800;9.05303100;2023-01-01T00:53:58;8.57;;;6.63;;
7823;SDS011;3957;48.61947800;9.05303100;2023-01-01T00:54:58;8.40;;;6.27;;
7823;SDS011;3957;48.61947800;9.05303100;2023-01-01T00:55:59;10.10;;;6.35;;
7823;SDS011;3957;48.61947800;9.05303100;2023-01-01T00:56:59;10.67;;;6.50;;
7823;SDS011;3957;48.61947800;9.05303100;2023-01-01T00:57:59;9.00;;;6.60;;
7823;SDS011;3957;48.61947800;9.05303100;2023-01-01T00:59:00;10.13;;;6.73;;
7823;SDS011;3957;48.61947800;9.05303100;2023-01-01T01:00:00;11.17;;;6.33;;
7823;SDS011;3957;48.61947800;9.05303100;2023-01-01T01:01:01;9.00;;;6.33;;
7823;SDS011;3957;48.61947800;9.05303100;2023-01-01T01:02:01;9.23;;;6.25;;
7823;SDS011;3957;48.61947800;9.05303100;2023-01-01T01:03:02;9.47;;;6.70;;
7823;SDS011;3957;48.61947800;9.05303100;2023-01-01T01:04:03;9.55;;;6.72;;
7823;SDS011;3957;48.61947800;9.05303100;2023-01-01T01:05:03;9.35;;;6.57;;
7823;SDS011;3957;48.61947800;9.05303100;2023-01-01T01:07:05;8.83;;;6.20;;
7823;SDS011;3957;48.61947800;9.05303100;2023-01-01T01:08:05;10.00;;;6.35;;
7823;SDS011;3957;48.61947800;9.05303100;2023-01-01T01:09:06;9.53;;;6.40;;
7823;SDS011;3957;48.61947800;9.05303100;2023-01-01T01:10:06;10.80;;;6.43;;
7823;SDS011;3957;48.61947800;9.05303100;2023-01-01T01:12:13;8.98;;;6.70;;
7823;SDS011;3957;48.61947800;9.05303100;2023-01-01T01:13:13;8.85;;;6.30;;
7823;SDS011;3957;48.61947800;9.05303100;2023-01-01T01:14:13;9.37;;;6.70;;
7823;SDS011;3957;48.61947800;9.05303100;2023-01-01T01:15:14;9.48;;;6.57;;
7823;SDS011;3957;48.61947800;9.05303100;2023-01-01T01:16:15;8.73;;;6.30;;
7823;SDS011;3957;48.61947800;9.05303100;2023-01-01T01:17:17;8.75;;;6.50;;
7823;SDS011;3957;48.61947800;9.05303100;2023-01-01T01:18:18;10.07;;;6.37;;
7823;SDS011;3957;48.61947800;9.05303100;2023-01-01T01:19:18;9.67;;;6.10;;
7823;SDS011;3957;48.61947800;9.05303100;2023-01-01T01:20:22;9.95;;;6.82;;
7823;SDS011;3957;48.61947800;9.05303100;2023-01-01T01:21:23;10.13;;;6.23;;
7823;SDS011;3957;48.61947800;9.05303100;2023-01-01T01:22:24;11.38;;;6.45;;
7823;SDS011;3957;48.61947800;9.05303100;2023-01-01T01:23:25;9.40;;;6.00;;
7823;SDS011;3957;48.61947800;9.05303100;2023-01-01T01:24:25;10.47;;;6.60;;
7823;SDS011;3957;48.61947800;9.05303100;2023-01-01T01:25:26;8.83;;;5.90;;
7823;SDS011;3957;48.61947800;9.05303100;2023-01-01T01:26:27;8.80;;;6.60;;
7823;SDS011;3957;48.61947800;9.05303100;2023-01-01T01:27:29;8.15;;;5.75;;
7823;SDS011;3957;48.61947800;9.05303100;2023-01-01T01:28:30;8.83;;;6.20;;
7823;SDS011;3957;48.61947800;9.05303100;2023-01-01T01:29:30;7.87;;;5.63;;
7823;SDS011;3957;48.61947800;9.05303100;2023-01-01T01:30:31;8.20;;;6.00;;
7823;SDS011;3957;48.61947800;9.05303100;2023-01-01T01:31:31;7.22;;;5.40;;
7823;SDS011;3957;48.61947800;9.05303100;2023-01-01T01:32:33;7.47;;;5.75;;
7823;SDS011;3957;48.61947800;9.05303100;2023-01-01T01:33:34;7.00;;;5.30;;
7823;SDS011;3957;48.61947800;9.05303100;2023-01-01T01:34:35;8.85;;;5.78;;
7823;SDS011;3957;48.61947800;9.05303100;2023-01-01T01:35:35;8.87;;;5.80;;
7823;SDS011;3957;48.61947800;9.05303100;2023-01-01T01:36:35;11.00;;;6.20;;
7823;SDS011;3957;48.61947800;9.05303100;2023-01-01T01:37:36;8.53;;;5.93;;
7823;SDS011;3957;48.61947800;9.05303100;2023-01-01T01:38:36;8.83;;;5.93;;
7823;SDS011;3957;48.61947800;9.05303100;2023-01-01T01:39:37;7.67;;;5.73;;
7823;SDS011;3957;48.61947800;9.05303100;2023-01-01T01:40:41;9.63;;;5.90;;
7823;SDS011;3957;48.61947800;9.05303100;2023-01-01T01:41:41;8.48;;;5.90;;
7823;SDS011;3957;48.61947800;9.05303100;2023-01-01T01:42:46;7.97;;;5.90;;
7823;SDS011;3957;48.61947800;9.05303100;2023-01-01T01:43:57;8.97;;;6.33;;
7823;SDS011;3957;48.61947800;9.05303100;2023-01-01T01:45:05;8.32;;;6.20;;
7823;SDS011;3957;48.61947800;9.05303100;2023-01-01T01:46:12;12.25;;;7.68;;
7823;SDS011;3957;48.61947800;9.05303100;2023-01-01T01:47:16;10.85;;;7.93;;
7823;SDS011;3957;48.61947800;9.05303100;2023-01-01T01:48:21;12.13;;;7.10;;
7823;SDS011;3957;48.61947800;9.05303100;2023-01-01T01:49:26;10.95;;;7.80;;
7823;SDS011;3957;48.61947800;9.05303100;2023-01-01T01:50:36;13.45;;;8.23;;
7823;SDS011;3957;48.61947800;9.05303100;2023-01-01T01:51:40;11.77;;;7.82;;
7823;SDS011;3957;48.61947800;9.05303100;2023-01-01T01:52:49;11.65;;;8.00;;
7823;SDS011;3957;48.61947800;9.05303100;2023-01-01T01:54:14;14.68;;;8.50;;
7823;SDS011;3957;48.61947800;9.05303100;2023-01-01T01:55:18;13.02;;;8.82;;
7823;SDS011;3957;48.61947800;9.05303100;2023-01-01T01:56:24;12.80;;;8.57;;
7823;SDS011;3957;48.61947800;9.05303100;2023-01-01T01:57:29;12.05;;;8.57;;
7823;SDS011;3957;48.61947800;9.05303100;2023-01-01T01:58:31;15.50;;;9.38;;
7823;SDS011;3957;48.61947800;9.05303100;2023-01-01T01:59:34;14.57;;;8.63;;
7823;SDS011;3957;48.61947800;9.05303100;2023-01-01T02:00:37;14.15;;;8.98;;
7823;SDS011;3957;48.61947800;9.05303100;2023-01-01T02:01:38;13.05;;;9.13;;
7823;SDS011;3957;48.61947800;9.05303100;2023-01-01T02:02:45;13.07;;;9.03;;
7823;SDS011;3957;48.61947800;9.05303100;2023-01-01T02:03:52;12.20;;;8.60;;
7823;SDS011;3957;48.61947800;9.05303100;2023-01-01T02:04:56;12.90;;;8.70;;
7823;SDS011;3957;48.61947800;9.05303100;2023-01-01T02:05:57;12.07;;;8.48;;
7823;SDS011;3957;48.61947800;9.05303100;2023-01-01T02:06:58;11.40;;;8.02;;
7823;SDS011;3957;48.61947800;9.05303100;2023-01-01T02:07:59;13.23;;;8.73;;
7823;SDS011;3957;48.61947800;9.05303100;2023-01-01T02:09:02;14.02;;;8.77;;
7823;SDS011;3957;48.61947800;9.05303100;2023-01-01T02:10:03;10.82;;;7.65;;
7823;SDS011;3957;48.61947800;9.05303100;2023-01-01T02:11:04;13.50;;;8.95;;
7823;SDS011;3957;48.61947800;9.05303100;2023-01-01T02:12:05;12.65;;;8.23;;
7823;SDS011;3957;48.61947800;9.05303100;2023-01-01T02:13:05;13.97;;;8.50;;
7823;SDS011;3957;48.61947800;9.05303100;2023-01-01T02:14:06;13.70;;;8.80;;
7823;SDS011;3957;48.61947800;9.05303100;2023-01-01T02:15:07;11.43;;;8.40;;
7823;SDS011;3957;48.61947800;9.05303100;2023-01-01T02:16:11;13.90;;;8.70;;
7823;SDS011;3957;48.61947800;9.05303100;2023-01-01T02:17:30;12.23;;;8.43;;
7823;SDS011;3957;48.61947800;9.05303100;2023-01-01T02:21:13;10.05;;;7.47;;
7823;SDS011;3957;48.61947800;9.05303100;2023-01-01T02:23:59;11.57;;;7.82;;
7823;SDS011;3957;48.61947800;9.05303100;2023-01-01T02:28:52;13.90;;;8.40;;
7823;SDS011;3957;48.61947800;9.05303100;2023-01-01T02:30:03;12.00;;;8.10;;
7823;SDS011;3957;48.61947800;9.05303100;2023-01-01T02:31:06;12.57;;;7.65;;
7823;SDS011;3957;48.61947800;9.05303100;2023-01-01T02:33:21;11.47;;;7.73;;
7823;SDS011;3957;48.61947800;9.05303100;2023-01-01T02:34:26;11.60;;;7.63;;
7823;SDS011;3957;48.61947800;9.05303100;2023-01-01T02:35:33;10.55;;;7.85;;
7823;SDS011;3957;48.61947800;9.05303100;2023-01-01T02:36:39;10.95;;;7.50;;
7823;SDS011;3957;48.61947800;9.05303100;2023-01-01T02:37:47;11.43;;;7.45;;
7823;SDS011;3957;48.61947800;9.05303100;2023-01-01T02:38:50;11.20;;;7.63;;
7823;SDS011;3957;48.61947800;9.05303100;2023-01-01T02:39:54;12.02;;;7.95;;
7823;SDS011;3957;48.61947800;9.05303100;2023-01-01T02:41:14;11.30;;;8.00;;
7823;SDS011;3957;48.61947800;9.05303100;2023-01-01T02:42:22;11.82;;;7.65;;
7823;SDS011;3957;48.61947800;9.05303100;2023-01-01T02:43:25;10.15;;;7.32;;
7823;SDS011;3957;48.61947800;9.05303100;2023-01-01T02:44:27;12.33;;;7.20;;
7823;SDS011;3957;48.61947800;9.05303100;2023-01-01T02:45:30;12.00;;;7.43;;
7823;SDS011;3957;48.61947800;9.05303100;2023-01-01T02:46:31;10.30;;;7.60;;
7823;SDS011;3957;48.61947800;9.05303100;2023-01-01T02:47:33;10.75;;;6.97;;
7823;SDS011;3957;48.61947800;9.05303100;2023-01-01T02:48:37;10.70;;;7.33;;
7823;SDS011;3957;48.61947800;9.05303100;2023-01-01T02:49:47;12.15;;;7.05;;
7823;SDS011;3957;48.61947800;9.05303100;2023-01-01T02:50:54;10.57;;;6.72;;
7823;SDS011;3957;48.61947800;9.05303100;2023-01-01T02:52:04;8.70;;;6.47;;
7823;SDS011;3957;48.61947800;9.05303100;2023-01-01T02:53:16;9.40;;;6.45;;
7823;SDS011;3957;48.61947800;9.05303100;2023-01-01T02:54:28;7.80;;;6.00;;
7823;SDS011;3957;48.61947800;9.05303100;2023-01-01T02:58:12;11.05;;;6.50;;
7823;SDS011;3957;48.61947800;9.05303100;2023-01-01T03:00:26;8.90;;;6.22;;
7823;SDS011;3957;48.61947800;9.05303100;2023-01-01T03:04:21;11.07;;;5.83;;
7823;SDS011;3957;48.61947800;9.05303100;2023-01-01T03:06:37;9.20;;;6.43;;
7823;SDS011;3957;48.61947800;9.05303100;2023-01-01T03:08:06;7.18;;;5.53;;
7823;SDS011;3957;48.61947800;9.05303100;2023-01-01T03:10:21;9.52;;;5.90;;
7823;SDS011;3957;48.61947800;9.05303100;2023-01-01T03:13:08;7.55;;;5.50;;
7823;SDS011;3957;48.61947800;9.05303100;2023-01-01T03:14:22;7.80;;;5.60;;
7823;SDS011;3957;48.61947800;9.05303100;2023-01-01T03:17:01;7.63;;;5.80;;
7823;SDS011;3957;48.61947800;9.05303100;2023-01-01T03:18:31;8.98;;;5.85;;
7823;SDS011;3957;48.61947800;9.05303100;2023-01-01T03:19:36;8.07;;;5.78;;
7823;SDS011;3957;48.61947800;9.05303100;2023-01-01T03:20:41;8.73;;;5.68;;
7823;SDS011;3957;48.61947800;9.05303100;2023-01-01T03:21:52;10.15;;;5.85;;
7823;SDS011;3957;48.61947800;9.05303100;2023-01-01T03:23:19;8.13;;;5.40;;
7823;SDS011;3957;48.61947800;9.05303100;2023-01-01T03:24:34;8.93;;;5.85;;
7823;SDS011;3957;48.61947800;9.05303100;2023-01-01T03:25:43;8.77;;;5.80;;
7823;SDS011;3957;48.61947800;9.05303100;2023-01-01T03:26:49;7.95;;;5.20;;
7823;SDS011;3957;48.61947800;9.05303100;2023-01-01T03:27:55;8.48;;;5.70;;
7823;SDS011;3957;48.61947800;9.05303100;2023-01-01T03:29:02;8.32;;;5.47;;
7823;SDS011;3957;48.61947800;9.05303100;2023-01-01T03:30:05;8.27;;;5.47;;
7823;SDS011;3957;48.61947800;9.05303100;2023-01-01T03:31:08;7.60;;;5.70;;
7823;SDS011;3957;48.61947800;9.05303100;2023-01-01T03:32:11;9.15;;;6.20;;
7823;SDS011;3957;48.61947800;9.05303100;2023-01-01T03:34:30;8.97;;;5.60;;
7823;SDS011;3957;48.61947800;9.05303100;2023-01-01T03:36:47;8.63;;;5.53;;
7823;SDS011;3957;48.61947800;9.05303100;2023-01-01T03:37:52;8.05;;;5.40;;
7823;SDS011;3957;48.61947800;9.05303100;2023-01-01T03:38:58;8.27;;;5.40;;
7823;SDS011;3957;48.61947800;9.05303100;2023-01-01T03:40:03;8.43;;;5.18;;
7823;SDS011;3957;48.61947800;9.05303100;2023-01-01T03:41:12;7.05;;;4.90;;
7823;SDS011;3957;48.61947800;9.05303100;2023-01-01T03:42:18;7.73;;;5.37;;
7823;SDS011;3957;48.61947800;9.05303100;2023-01-01T03:43:37;6.75;;;5.03;;
7823;SDS011;3957;48.61947800;9.05303100;2023-01-01T03:44:50;8.15;;;5.13;;
7823;SDS011;3957;48.61947800;9.05303100;2023-01-01T03:45:57;7.60;;;5.18;;
7823;SDS011;3957;48.61947800;9.05303100;2023-01-01T03:46:59;8.60;;;5.03;;
7823;SDS011;3957;48.61947800;9.05303100;2023-01-01T03:48:01;7.00;;;5.15;;
7823;SDS011;3957;48.61947800;9.05303100;2023-01-01T03:49:03;6.97;;;4.55;;
7823;SDS011;3957;48.61947800;9.05303100;2023-01-01T03:50:05;8.93;;;4.85;;
7823;SDS011;3957;48.61947800;9.05303100;2023-01-01T03:53:58;7.13;;;4.63;;
7823;SDS011;3957;48.61947800;9.05303100;2023-01-01T03:58:25;8.02;;;5.05;;
7823;SDS011;3957;48.61947800;9.05303100;2023-01-01T03:59:18;8.60;;;5.68;;
7823;SDS011;3957;48.61947800;9.05303100;2023-01-01T04:00:24;7.68;;;4.60;;
7823;SDS011;3957;48.61947800;9.05303100;2023-01-01T04:01:31;7.25;;;5.10;;
7823;SDS011;3957;48.61947800;9.05303100;2023-01-01T04:02:43;6.20;;;4.55;;
7823;SDS011;3957;48.61947800;9.05303100;2023-01-01T04:03:56;8.85;;;5.43;;
7823;SDS011;3957;48.61947800;9.05303100;2023-01-01T04:04:59;7.50;;;4.85;;
7823;SDS011;3957;48.61947800;9.05303100;2023-01-01T04:06:02;6.30;;;4.78;;
7823;SDS011;3957;48.61947800;9.05303100;2023-01-01T04:07:03;7.05;;;4.75;;
7823;SDS011;3957;48.61947800;9.05303100;2023-01-01T04:08:03;7.07;;;5.07;;
7823;SDS011;3957;48.61947800;9.05303100;2023-01-01T04:09:06;8.37;;;5.30;;
7823;SDS011;3957;48.61947800;9.05303100;2023-01-01T04:10:11;8.85;;;5.00;;
7823;SDS011;3957;48.61947800;9.05303100;2023-01-01T04:11:20;6.18;;;4.82;;
7823;SDS011;3957;48.61947800;9.05303100;2023-01-01T04:12:43;6.50;;;4.80;;
7823;SDS011;3957;48.61947800;9.05303100;2023-01-01T04:13:49;6.75;;;4.82;;
7823;SDS011;3957;48.61947800;9.05303100;2023-01-01T04:14:49;6.07;;;4.80;;
7823;SDS011;3957;48.61947800;9.05303100;2023-01-01T04:15:50;8.77;;;4.83;;
7823;SDS011;3957;48.61947800;9.05303100;2023-01-01T04:16:50;7.85;;;4.93;;
7823;SDS011;3957;48.61947800;9.05303100;2023-01-01T04:17:51;8.07;;;5.07;;
7823;SDS011;3957;48.61947800;9.05303100;2023-01-01T04:18:52;8.90;;;5.78;;
7823;SDS011;3957;48.61947800;9.05303100;2023-01-01T04:19:52;6.90;;;4.80;;
7823;SDS011;3957;48.61947800;9.05303100;2023-01-01T04:20:53;7.47;;;4.80;;
7823;SDS011;3957;48.61947800;9.05303100;2023-01-01T04:21:53;9.63;;;4.65;;
7823;SDS011;3957;48.61947800;9.05303100;2023-01-01T04:22:57;7.03;;;4.73;;
7823;SDS011;3957;48.61947800;9.05303100;2023-01-01T04:23:59;6.47;;;4.82;;
7823;SDS011;3957;48.61947800;9.05303100;2023-01-01T04:24:59;6.88;;;4.82;;
7823;SDS011;3957;48.61947800;9.05303100;2023-01-01T04:25:59;7.23;;;4.63;;
7823;SDS011;3957;48.61947800;9.05303100;2023-01-01T04:27:00;7.17;;;5.20;;
7823;SDS011;3957;48.61947800;9.05303100;2023-01-01T04:28:00;9.60;;;4.83;;
7823;SDS011;3957;48.61947800;9.05303100;2023-01-01T04:29:03;7.97;;;4.97;;
7823;SDS011;3957;48.61947800;9.05303100;2023-01-01T04:30:04;7.50;;;4.80;;
7823;SDS011;3957;48.61947800;9.05303100;2023-01-01T04:31:06;7.35;;;5.05;;
7823;SDS011;3957;48.61947800;9.05303100;2023-01-01T04:32:07;6.15;;;4.65;;
7823;SDS011;3957;48.61947800;9.05303100;2023-01-01T04:33:08;7.23;;;4.87;;
7823;SDS011;3957;48.61947800;9.05303100;2023-01-01T04:34:08;7.20;;;5.07;;
7823;SDS011;3957;48.61947800;9.05303100;2023-01-01T04:35:09;6.70;;;4.30;;
7823;SDS011;3957;48.61947800;9.05303100;2023-01-01T04:36:11;7.18;;;5.07;;
7823;SDS011;3957;48.61947800;9.05303100;2023-01-01T04:37:12;10.23;;;6.00;;
7823;SDS011;3957;48.61947800;9.05303100;2023-01-01T04:38:13;12.02;;;7.75;;
7823;SDS011;3957;48.61947800;9.05303100;2023-01-01T04:39:13;7.38;;;5.00;;
7823;SDS011;3957;48.61947800;9.05303100;2023-01-01T04:40:14;6.40;;;4.43;;
7823;SDS011;3957;48.61947800;9.05303100;2023-01-01T04:41:14;7.05;;;4.57;;
7823;SDS011;3957;48.61947800;9.05303100;2023-01-01T04:42:14;6.37;;;4.70;;
7823;SDS011;3957;48.61947800;9.05303100;2023-01-01T04:43:15;7.10;;;4.63;;
7823;SDS011;3957;48.61947800;9.05303100;2023-01-01T04:44:15;7.90;;;4.67;;
7823;SDS011;3957;48.61947800;9.05303100;2023-01-01T04:45:16;7.70;;;4.17;;
7823;SDS011;3957;48.61947800;9.05303100;2023-01-01T04:46:17;7.18;;;4.57;;
7823;SDS011;3957;48.61947800;9.05303100;2023-01-01T04:47:19;6.95;;;4.60;;
7823;SDS011;3957;48.61947800;9.05303100;2023-01-01T04:48:21;5.93;;;4.40;;
7823;SDS011;3957;48.61947800;9.05303100;2023-01-01T04:49:21;7.50;;;4.80;;
7823;SDS011;3957;48.61947800;9.05303100;2023-01-01T04:50:22;7.05;;;4.90;;
7823;SDS011;3957;48.61947800;9.05303100;2023-01-01T04:51:22;5.13;;;4.13;;
7823;SDS011;3957;48.61947800;9.05303100;2023-01-01T04:52:22;9.02;;;4.60;;
7823;SDS011;3957;48.61947800;9.05303100;2023-01-01T04:53:23;5.83;;;4.43;;
7823;SDS011;3957;48.61947800;9.05303100;2023-01-01T04:54:24;5.72;;;4.28;;
7823;SDS011;3957;48.61947800;9.05303100;2023-01-01T04:55:24;6.28;;;4.43;;
7823;SDS011;3957;48.61947800;9.05303100;2023-01-01T04:56:25;5.93;;;3.97;;
7823;SDS011;3957;48.61947800;9.05303100;2023-01-01T04:57:27;6.03;;;4.30;;
7823;SDS011;3957;48.61947800;9.05303100;2023-01-01T04:58:29;6.38;;;4.13;;
7823;SDS011;3957;48.61947800;9.05303100;2023-01-01T04:59:29;6.55;;;4.40;;
7823;SDS011;3957;48.61947800;9.05303100;2023-01-01T05:00:30;6.00;;;4.60;;
7823;SDS011;3957;48.61947800;9.05303100;2023-01-01T05:01:30;6.13;;;4.30;;
7823;SDS011;3957;48.61947800;9.05303100;2023-01-01T05:02:31;6.63;;;4.28;;
7823;SDS011;3957;48.61947800;9.05303100;2023-01-01T05:03:32;5.40;;;4.10;;
7823;SDS011;3957;48.61947800;9.05303100;2023-01-01T05:04:33;7.80;;;4.55;;
7823;SDS011;3957;48.61947800;9.05303100;2023-01-01T05:05:33;6.63;;;3.97;;
7823;SDS011;3957;48.61947800;9.05303100;2023-01-01T05:06:34;6.70;;;4.43;;
7823;SDS011;3957;48.61947800;9.05303100;2023-01-01T05:07:34;6.20;;;3.97;;
7823;SDS011;3957;48.61947800;9.05303100;2023-01-01T05:08:35;6.22;;;4.28;;
7823;SDS011;3957;48.61947800;9.05303100;2023-01-01T05:09:37;7.38;;;3.97;;
7823;SDS011;3957;48.61947800;9.05303100;2023-01-01T05:10:37;5.80;;;4.00;;
7823;SDS011;3957;48.61947800;9.05303100;2023-01-01T05:11:37;5.40;;;4.15;;
7823;SDS011;3957;48.61947800;9.05303100;2023-01-01T05:12:38;6.10;;;3.80;;
7823;SDS011;3957;48.61947800;9.05303100;2023-01-01T05:13:42;5.10;;;4.00;;
7823;SDS011;3957;48.61947800;9.05303100;2023-01-01T05:14:43;4.82;;;3.53;;
7823;SDS011;3957;48.61947800;9.05303100;2023-01-01T05:15:44;6.27;;;4.27;;
7823;SDS011;3957;48.61947800;9.05303100;2023-01-01T05:16:44;5.30;;;3.95;;
7823;SDS011;3957;48.61947800;9.05303100;2023-01-01T05:17:44;6.03;;;3.97;;
7823;SDS011;3957;48.61947800;9.05303100;2023-01-01T05:18:46;5.03;;;3.75;;
7823;SDS011;3957;48.61947800;9.05303100;2023-01-01T05:19:47;5.38;;;4.07;;
7823;SDS011;3957;48.61947800;9.05303100;2023-01-01T05:20:47;4.77;;;3.53;;
7823;SDS011;3957;48.61947800;9.05303100;2023-01-01T05:21:48;6.95;;;4.60;;
7823;SDS011;3957;48.61947800;9.05303100;2023-01-01T05:22:48;5.07;;;3.90;;
7823;SDS011;3957;48.61947800;9.05303100;2023-01-01T05:23:52;5.03;;;3.22;;
7823;SDS011;3957;48.61947800;9.05303100;2023-01-01T05:24:54;6.00;;;4.07;;
7823;SDS011;3957;48.61947800;9.05303100;2023-01-01T05:25:55;6.60;;;3.80;;
7823;SDS011;3957;48.61947800;9.05303100;2023-01-01T05:26:56;7.35;;;4.38;;
7823;SDS011;3957;48.61947800;9.05303100;2023-01-01T05:27:56;5.67;;;3.90;;
7823;SDS011;3957;48.61947800;9.05303100;2023-01-01T05:28:57;9.43;;;4.20;;
7823;SDS011;3957;48.61947800;9.05303100;2023-01-01T05:29:58;6.25;;;4.00;;
7823;SDS011;3957;48.61947800;9.05303100;2023-01-01T05:31:03;5.80;;;3.83;;
7823;SDS011;3957;48.61947800;9.05303100;2023-01-01T05:32:04;5.88;;;4.00;;
7823;SDS011;3957;48.61947800;9.05303100;2023-01-01T05:33:05;5.97;;;4.10;;
7823;SDS011;3957;48.61947800;9.05303100;2023-01-01T05:34:05;6.07;;;3.83;;
7823;SDS011;3957;48.61947800;9.05303100;2023-01-01T05:35:06;5.70;;;4.20;;
7823;SDS011;3957;48.61947800;9.05303100;2023-01-01T05:36:07;6.80;;;4.10;;
7823;SDS011;3957;48.61947800;9.05303100;2023-01-01T05:37:09;6.27;;;3.57;;
7823;SDS011;3957;48.61947800;9.05303100;2023-01-01T05:38:09;9.23;;;4.37;;
7823;SDS011;3957;48.61947800;9.05303100;2023-01-01T05:39:10;4.93;;;3.60;;
7823;SDS011;3957;48.61947800;9.05303100;2023-01-01T05:40:11;9.02;;;4.00;;
7823;SDS011;3957;48.61947800;9.05303100;2023-01-01T05:41:13;6.63;;;4.28;;
7823;SDS011;3957;48.61947800;9.05303100;2023-01-01T05:42:14;5.17;;;3.50;;
7823;SDS011;3957;48.61947800;9.05303100;2023-01-01T05:43:15;5.37;;;3.80;;
7823;SDS011;3957;48.61947800;9.05303100;2023-01-01T05:44:17;6.25;;;3.40;;
7823;SDS011;3957;48.61947800;9.05303100;2023-01-01T05:45:18;5.85;;;3.70;;
7823;SDS011;3957;48.61947800;9.05303100;2023-01-01T05:46:19;4.30;;;3.58;;
7823;SDS011;3957;48.61947800;9.05303100;2023-01-01T05:47:22;5.45;;;3.60;;
7823;SDS011;3957;48.61947800;9.05303100;2023-01-01T05:48:22;7.20;;;4.00;;
7823;SDS011;3957;48.61947800;9.05303100;2023-01-01T05:49:22;6.07;;;3.60;;
7823;SDS011;3957;48.61947800;9.05303100;2023-01-01T05:50:23;8.37;;;4.17;;
7823;SDS011;3957;48.61947800;9.05303100;2023-01-01T05:51:24;5.05;;;3.60;;
7823;SDS011;3957;48.61947800;9.05303100;2023-01-01T05:52:26;5.28;;;3.45;;
7823;SDS011;3957;48.61947800;9.05303100;2023-01-01T05:53:27;5.75;;;3.40;;
7823;SDS011;3957;48.61947800;9.05303100;2023-01-01T05:54:28;6.50;;;3.92;;
7823;SDS011;3957;48.61947800;9.05303100;2023-01-01T05:55:28;6.32;;;4.00;;
7823;SDS011;3957;48.61947800;9.05303100;2023-01-01T05:56:28;6.23;;;3.33;;
7823;SDS011;3957;48.61947800;9.05303100;2023-01-01T05:57:29;6.82;;;4.05;;
7823;SDS011;3957;48.61947800;9.05303100;2023-01-01T05:58:30;4.30;;;3.43;;
7823;SDS011;3957;48.61947800;9.05303100;2023-01-01T05:59:33;5.60;;;4.00;;
7823;SDS011;3957;48.61947800;9.05303100;2023-01-01T06:00:33;6.57;;;3.77;;
7823;SDS011;3957;48.61947800;9.05303100;2023-01-01T06:01:33;6.90;;;3.83;;
7823;SDS011;3957;48.61947800;9.05303100;2023-01-01T06:02:34;5.37;;;3.77;;
7823;SDS011;3957;48.61947800;9.05303100;2023-01-01T06:03:34;5.17;;;3.93;;
7823;SDS011;3957;48.61947800;9.05303100;2023-01-01T06:04:35;8.17;;;3.50;;
7823;SDS011;3957;48.61947800;9.05303100;2023-01-01T06:05:35;5.33;;;3.67;;
7823;SDS011;3957;48.61947800;9.05303100;2023-01-01T06:06:36;6.07;;;3.97;;
7823;SDS011;3957;48.61947800;9.05303100;2023-01-01T06:07:37;5.78;;;3.75;;
7823;SDS011;3957;48.61947800;9.05303100;2023-01-01T06:08:38;6.07;;;3.90;;
7823;SDS011;3957;48.61947800;9.05303100;2023-01-01T06:09:39;4.55;;;3.60;;